• Join FlightAware (Why Join?)
  • Login
  • US Flag 
02:21PM EST


 

Airport Tracker/Info


-or-


 

Live Flight TrackerFlight Track Log ✈ N560G ✈ 16-Jun-2013 ✈ KSLN - KPNE

Flight Track Log - Related Links

Times and Time Zones

All times are in EDT time to prevent confusion due to time zone crossing. See the N560G flight status page for this flight to view local times or setup timezone preferences in your user account.

Time Position Orientation Groundspeed Altitude Reporting Facility
EDT Latitude Longitude Course Direction KTS MPH feet Rate Location/Type
02:23PM 38.8500 -97.5631 67° East 226 260 5,400  Level Kansas City Center
02:24PM 38.8686 -97.4700 76° East 260 299 8,100 2,304 Climbing Kansas City Center
02:25PM 38.8844 -97.3781 77° East 272 313 10,200 1,839 Climbing Kansas City Center
02:26PM 38.9042 -97.2750 76° East 287 330 11,900 1,548 Climbing Kansas City Center
02:27PM 38.9207 -96.8045 79° East  Level Estimated
02:27PM 38.9253 -97.1619 76° East 310 357 13,400  Level Kansas City Center
02:28PM 38.9418 -96.6629 79° East  Level Estimated
02:28PM 38.9467 -97.0453 77° East 322 371 14,900  Level Kansas City Center
02:30PM 38.9683 -96.9297 76° East 329 379 16,300 1,065 Climbing Kansas City Center
02:31PM 38.9889 -96.8161 77° East 339 390 17,100 878 Climbing Kansas City Center
02:32PM 39.0150 -96.6767 76° East 356 410 18,100 1,016 Climbing Kansas City Center
02:33PM 39.0364 -96.5550 77° East 362 417 19,200 1,161 Climbing Kansas City Center
02:34PM 39.0617 -96.4139 77° East 363 418 20,500 1,065 Climbing Kansas City Center
02:35PM 39.0839 -96.2892 77° East 373 429 21,400 912 Climbing Kansas City Center
02:36PM 39.1103 -96.1433 77° East 374 430 22,400 919 Climbing Kansas City Center
02:37PM 39.1331 -96.0156 77° East 382 440 23,300 871 Climbing Kansas City Center
02:38PM 39.1553 -95.8867 77° East 383 441 24,200 919 Climbing Kansas City Center
02:39PM 39.1822 -95.7311 77° East 399 459 25,200 934 Climbing Kansas City Center
02:40PM 39.2064 -95.5967 77° East 403 464 26,100 960 Climbing Kansas City Center
02:41PM 39.2342 -95.4300 78° East 410 472 27,200 960 Climbing Kansas City Center
02:42PM 39.2592 -95.2850 77° East 415 478 28,100 934 Climbing Kansas City Center
02:43PM 39.2853 -95.1286 78° East 416 479 29,100 934 Climbing Kansas City Center
02:44PM 39.3094 -94.9864 78° East 414 476 30,000 864 Climbing Kansas City Center
02:45PM 39.3328 -94.8481 78° East 413 475 30,900 905 Climbing Kansas City Center
02:46PM 39.3594 -94.6836 78° East 416 479 31,900 912 Climbing Kansas City Center
02:47PM 39.3828 -94.5411 78° East 422 486 32,800 836 Climbing Kansas City Center
02:48PM 39.4097 -94.3778 78° East 417 480 33,600 639 Climbing Kansas City Center
02:49PM 39.4317 -94.2350 79° East 422 486 34,100 432 Climbing Kansas City Center
02:50PM 39.4556 -94.0867 78° East 438 504 34,500 484 Climbing Kansas City Center
02:51PM 39.4831 -93.9117 78° East 444 511 35,100 528 Climbing Kansas City Center
02:52PM 39.5097 -93.7392 79° East 452 520 35,600 484 Climbing Kansas City Center
02:53PM 39.5344 -93.5789 79° East 453 521 36,100 496 Climbing Kansas City Center
02:54PM 39.5603 -93.4203 78° East 453 521 36,600 476 Climbing Kansas City Center
02:55PM 39.5842 -93.2650 79° East 450 518 37,100 484 Climbing Kansas City Center
02:56PM 39.6072 -93.1078 79° East 450 518 37,600 488 Climbing Kansas City Center
02:57PM 39.6339 -92.9156 80° East 456 525 38,100 484 Climbing Kansas City Center
02:58PM 39.6561 -92.7592 79° East 452 520 38,600 484 Climbing Kansas City Center
02:59PM 39.6794 -92.6036 79° East 449 517 39,100 476 Climbing Kansas City Center
03:01PM 39.7017 -92.4492 79° East 444 511 39,600 443 Climbing Kansas City Center
03:02PM 39.7236 -92.2939 80° East 443 510 40,000 435 Climbing Kansas City Center
03:03PM 39.7494 -92.1089 80° East 442 509 40,500 384 Climbing Kansas City Center
03:04PM 39.7722 -91.9544 79° East 440 506 40,800 240 Climbing Kansas City Center
03:05PM 39.7931 -91.7994 80° East 442 509 41,000 97 Climbing Kansas City Center
03:06PM 39.8153 -91.6436 79° East 443 510 41,000  Level Kansas City Center
03:07PM 39.8397 -91.4542 80° East 446 513 41,000  Level Kansas City Center
03:08PM 39.8625 -91.2950 79° East 450 518 41,000  Level Kansas City Center
03:09PM 39.8825 -91.1356 81° East 451 519 41,000  Level Kansas City Center
03:10PM 39.9050 -90.9661 80° East 453 521 41,000  Level Kansas City Center
03:11PM 39.9261 -90.8042 80° East 454 522 41,000  Level Kansas City Center
03:12PM 39.9472 -90.6414 80° East 456 525 41,000  Level Kansas City Center
03:13PM 39.9664 -90.4783 81° East 457 526 41,000  Level Kansas City Center
03:14PM 39.9914 -90.2822 80° East 457 526 41,000  Level Kansas City Center
03:15PM 40.0117 -90.1194 81° East 458 527 41,000  Level Kansas City Center
03:16PM 40.0314 -89.9539 81° East 462 532 41,000  Level Kansas City Center
03:17PM 40.0514 -89.7886 81° East 463 533 41,000  Level Kansas City Center
03:18PM 40.0711 -89.6236 81° East 464 534 41,000  Level Kansas City Center
03:19PM 40.0900 -89.4589 81° East 463 533 41,000  Level Kansas City Center
03:20PM 40.1136 -89.2572 81° East 468 539 41,000  Level Kansas City Center
03:21PM 40.1272 -89.1250 82° East 467 537 41,000  Level Chicago Center
03:22PM 40.1461 -88.9575 82° East 468 539 41,000  Level Chicago Center
03:23PM 40.1672 -88.7572 82° East 468 539 41,000  Level Chicago Center
03:24PM 40.1867 -88.5894 81° East 469 540 41,000  Level Chicago Center
03:25PM 40.2056 -88.4178 82° East 470 541 41,000  Level Chicago Center
03:26PM 40.2231 -88.2514 82° East 468 539 41,000  Level Chicago Center
03:27PM 40.2408 -88.0822 82° East 471 542 41,000  Level Chicago Center
03:28PM 40.2614 -87.8811 82° East 470 541 41,000  Level Chicago Center
03:29PM 40.2794 -87.7083 82° East 479 551 41,000  Level Chicago Center
03:30PM 40.2967 -87.5394 82° East 477 549 41,000  Level Chicago Center
03:31PM 40.3033 -87.3522 87° East 475 547 41,000  Level Chicago Center
03:32PM 40.3083 -87.1789 88° East 477 549 41,000  Level Chicago Center
03:33PM 40.3164 -87.0033 86° East 482 555 41,000  Level Chicago Center
03:34PM 40.3219 -86.8292 88° East 478 550 41,000  Level Chicago Center
03:35PM 40.3275 -86.6542 88° East 479 551 41,000  Level Chicago Center
03:37PM 40.3342 -86.4769 87° East 483 556 41,000  Level Chicago Center
03:38PM 40.3394 -86.3014 88° East 482 555 41,000  Level Chicago Center
03:39PM 40.3444 -86.0900 88° East 483 556 41,000  Level Chicago Center
03:40PM 40.3489 -85.9144 88° East 482 555 41,000  Level Chicago Center
03:40PM 40.3503 -85.8442 88° East 478 550 41,000  Level Indianapolis Center
03:41PM 40.3544 -85.6694 88° East 479 551 41,000  Level Indianapolis Center
03:42PM 40.3592 -85.4606 88° East 479 551 41,000  Level Indianapolis Center
03:43PM 40.3631 -85.2878 88° East 476 548 41,000  Level Indianapolis Center
03:44PM 40.3664 -85.1164 88° East 473 544 41,000  Level Indianapolis Center
03:45PM 40.3697 -84.9467 88° East 468 539 41,000  Level Indianapolis Center
03:46PM 40.3731 -84.7703 89° East 468 539 41,000  Level Indianapolis Center
03:47PM 40.3758 -84.6017 89° East 459 528 41,000  Level Indianapolis Center
03:48PM 40.3781 -84.4319 89° East 460 529 41,000  Level Indianapolis Center
03:49PM 40.3808 -84.2636 89° East 460 529 41,000  Level Indianapolis Center
03:50PM 40.3825 -84.0958 89° East 455 524 41,000  Level Indianapolis Center
03:51PM 40.3844 -83.9267 89° East 457 526 41,000  Level Indianapolis Center
03:52PM 40.3853 -83.7297 90° East 457 526 41,000  Level Indianapolis Center
03:54PM 40.3872 -83.5606 89° East 458 527 41,000  Level Indianapolis Center
03:55PM 40.3878 -83.3897 90° East 461 531 41,000  Level Indianapolis Center
03:56PM 40.3878 -83.2186 90° East 462 532 41,000  Level Indianapolis Center
03:57PM 40.3883 -83.0461 90° East 465 535 41,000  Level Indianapolis Center
03:58PM 40.3875 -82.8747 90° East 465 535 41,000  Level Indianapolis Center
03:59PM 40.3878 -82.6961 90° East 467 537 41,000  Level Indianapolis Center
04:00PM 40.3872 -82.5253 90° East 468 539 41,000  Level Indianapolis Center
04:01PM 40.3861 -82.3553 90° East 465 535 41,000  Level Indianapolis Center
04:02PM 40.3856 -82.1856 90° East 463 533 41,000  Level Indianapolis Center
04:03PM 40.3833 -82.0139 91° East 467 537 41,000  Level Indianapolis Center
04:04PM 40.3822 -81.8147 90° East 467 537 41,000  Level Indianapolis Center
04:05PM 40.3794 -81.6133 91° East 487 560 41,000  Level Cleveland Center
04:06PM 40.3767 -81.4417 91° East 475 547 41,000  Level Cleveland Center
04:07PM 40.3797 -81.2944 88° East 461 531 41,000  Level Cleveland Center
04:08PM 40.3747 -81.1311 92° East 467 537 41,000  Level Indianapolis Center
04:09PM 40.3711 -80.9631 92° East 462 532 41,000  Level Indianapolis Center
04:10PM 40.3689 -80.7917 91° East 468 539 41,000  Level Indianapolis Center
04:11PM 40.3647 -80.6194 92° East 471 542 41,000  Level Indianapolis Center
04:12PM 40.3631 -80.4469 91° East 461 531 41,000  Level Cleveland Center
04:13PM 40.3586 -80.2781 92° East 455 524 41,000  Level Cleveland Center
04:14PM 40.3539 -80.1092 92° East 461 531 41,000  Level Cleveland Center
04:15PM 40.3508 -79.9128 91° East 472 543 41,000  Level Cleveland Center
04:16PM 40.3475 -79.7494 91° East 472 543 41,000 -150 Level Cleveland Center
04:17PM 40.3422 -79.5806 92° East 461 531 40,700 -700 Descending Cleveland Center
04:18PM 40.3364 -79.4092 93° East 461 531 39,600 -1,100 Descending Cleveland Center
04:19PM 40.3281 -79.2406 94° East 461 531 38,500 -1,050 Descending Cleveland Center
04:20PM 40.3239 -79.0717 92° East 461 531 37,500 -1,050 Descending Cleveland Center
04:21PM 40.3153 -78.8950 94° East 467 537 36,400 -1,450 Descending Cleveland Center
04:22PM 40.3144 -78.7181 90° East 473 544 34,600 -2,150 Descending Cleveland Center
04:23PM 40.3158 -78.5492 89° East 473 544 32,100 -2,146 Descending Cleveland Center
04:25PM 40.3147 -78.3119 90° East 479 551 29,200 -2,040 Descending New York Center
04:26PM 40.3128 -78.1428 91° East 465 535 27,000 -2,067 Descending New York Center
04:27PM 40.3119 -77.9875 90° East 447 514 25,100 -1,000 Descending New York Center
04:28PM 40.3108 -77.8322 90° East 436 502 25,000 -298 Descending New York Center
04:29PM 40.3117 -77.6797 90° East 431 496 24,500 -1,140 Descending New York Center
04:30PM 40.3114 -77.5028 90° East 424 488 22,700 -1,636 Descending New York Center
04:31PM 40.3075 -77.3472 92° East 430 495 21,200 -1,525 Descending New York Center
04:32PM 40.3036 -77.1917 92° East 424 488 19,700 -1,128 Descending New York Center
04:33PM 40.2981 -77.0606 93° East 419 482 19,000 -787 Descending New York Center
04:34PM 40.2647 -76.9050 106° East 403 464 18,100 -1,171 Descending New York Center
04:35PM 40.2339 -76.7744 107° East 392 451 16,600 -1,563 Descending New York Center
04:36PM 40.2050 -76.6414 106° East 387 445 15,000 -1,525 Descending New York Center
04:37PM 40.1775 -76.5222 107° East 382 440 13,600 -1,488 Descending New York Center
04:38PM 40.1444 -76.3892 108° East 359 413 12,000 -1,388 Descending New York Center
04:39PM 40.1208 -76.2706 105° East 345 397 10,800 -1,190 Descending New York Center
04:40PM 40.1114 -76.1558 96° East 327 376 9,600 -1,220 Descending New York Center
04:41PM 40.1039 -76.0494 95° East 320 368 8,400 -1,271 Descending New York Center
04:42PM 40.0969 -75.9186 94° East 325 374 7,100 -1,180 Descending New York Center
04:43PM 40.0856 -75.8011 97° East 325 374 6,000 -857 Descending New York Center
04:44PM 40.0797 -75.6894 94° East 319 367 5,400 -807 Descending New York Center
04:45PM 40.0822 -75.5783 88° East 310 357 4,400 -694 Descending New York Center
04:46PM 40.0800 -75.4778 92° East 284 327 4,000 -198 Descending New York Center
04:47PM 40.0814 -75.3911 89° East 254 292 4,000  Level New York Center
04:48PM 40.0825 -75.3097 89° East 238 274 4,000 -446 Level New York Center
04:49PM 40.0833 -75.2000 89° East 251 289 3,100 -992 Descending Philadelphia TRACON
04:50PM 40.1000 -75.1167 75° East 222 255 2,000 -550 Descending Philadelphia TRACON
04:51PM 40.1167 -75.0667 66° East 182 209 2,000 -50 Level Philadelphia TRACON
04:52PM 40.1500 -75.0167 49° Northeast 149 171 1,900 -202 Descending Philadelphia TRACON
04:53PM 40.1344 -74.9792 118° Southeast 126 145 1,600 -403 Descending New York Center
04:54PM 40.1064 -74.9447 137° Southeast 128 147 1,100 -500 Descending New York Center
04:56PM 40.0667 -75.0000 90° East  Level FlightAware Approximate
05:03PM 40.0819 -75.0106 90° East  Level Estimated